createdAt,value
2018-11-20T00:01:53.510Z,40.73
2018-11-20T00:04:43.013Z,50.28
2018-11-20T00:07:48.981Z,47.38
2018-11-20T00:10:37.003Z,39.92
2018-11-20T00:13:25.155Z,48.30
2018-11-20T00:16:06.025Z,45.10
2018-11-20T00:18:44.212Z,45.75
2018-11-20T00:21:25.540Z,50.15
2018-11-20T00:24:16.570Z,49.27
2018-11-20T00:27:13.425Z,50.40
2018-11-20T00:29:56.709Z,52.55
2018-11-20T00:32:44.380Z,41.13
2018-11-20T00:35:32.506Z,52.65
2018-11-20T00:38:19.777Z,50.60
2018-11-20T00:41:17.916Z,46.25
2018-11-20T00:43:54.531Z,45.12
2018-11-20T00:46:51.315Z,56.50
2018-11-20T00:49:44.216Z,51.48
2018-11-20T00:52:30.815Z,49.30
2018-11-20T00:55:10.571Z,50.12
2018-11-20T00:58:05.473Z,50.08
2018-11-20T01:00:50.999Z,49.45
2018-11-20T01:03:40.200Z,46.23
2018-11-20T01:06:21.135Z,39.23
2018-11-20T01:09:14.948Z,47.95
2018-11-20T01:11:56.815Z,41.85
2018-11-20T01:14:32.421Z,45.35
2018-11-20T01:17:20.398Z,48.25
2018-11-20T01:20:11.132Z,44.77
2018-11-20T01:23:02.112Z,44.85
2018-11-20T01:25:47.910Z,42.27
2018-11-20T01:28:34.512Z,43.17
2018-11-20T01:31:20.964Z,49.50
2018-11-20T01:34:02.080Z,41.50
2018-11-20T01:36:49.976Z,46.83
2018-11-20T01:39:33.957Z,43.95
2018-11-20T01:42:32.403Z,39.00
2018-11-20T01:45:12.285Z,41.85
2018-11-20T01:48:09.092Z,44.40
2018-11-20T01:51:02.750Z,48.65
2018-11-20T01:53:55.791Z,45.75
2018-11-20T01:56:43.785Z,45.52
2018-11-20T01:59:33.918Z,49.65
2018-11-20T02:02:18.958Z,40.73
2018-11-20T02:05:07.864Z,44.10
2018-11-20T02:08:02.866Z,47.43
2018-11-20T02:10:43.076Z,47.10
2018-11-20T02:13:57.646Z,44.05
2018-11-20T02:16:45.558Z,37.42
2018-11-20T02:19:30.532Z,46.70
2018-11-20T02:22:14.996Z,44.18
2018-11-20T02:25:06.033Z,43.30
2018-11-20T02:28:05.950Z,46.08
2018-11-20T02:31:00.427Z,39.85
2018-11-20T02:33:38.369Z,48.38
2018-11-20T02:36:16.792Z,42.13
2018-11-20T02:39:20.001Z,42.38
2018-11-20T02:42:06.607Z,47.58
2018-11-20T02:44:53.991Z,51.02
2018-11-20T02:47:56.864Z,49.53
2018-11-20T02:50:36.995Z,51.70
2018-11-20T02:53:23.744Z,46.55
2018-11-20T02:56:15.447Z,45.40
2018-11-20T02:59:01.905Z,43.75
2018-11-20T03:01:44.098Z,44.53
2018-11-20T03:04:32.100Z,43.98
2018-11-20T03:07:12.850Z,48.10
2018-11-20T03:09:59.504Z,41.45
2018-11-20T03:12:53.172Z,40.15
2018-11-20T03:15:32.872Z,32.30
2018-11-20T03:18:19.636Z,43.65
2018-11-20T03:21:05.908Z,42.27
2018-11-20T03:23:51.222Z,53.65
2018-11-20T03:26:33.544Z,43.38
2018-11-20T03:29:39.396Z,41.40
2018-11-20T03:32:39.128Z,40.78
2018-11-20T03:35:27.824Z,37.75
2018-11-20T03:38:06.428Z,42.75
2018-11-20T03:40:55.172Z,44.00
2018-11-20T03:43:41.453Z,43.78
2018-11-20T03:46:29.512Z,44.42
2018-11-20T03:49:26.502Z,46.18
2018-11-20T03:52:27.321Z,36.00
2018-11-20T03:55:10.001Z,47.35
2018-11-20T03:57:51.865Z,41.63
2018-11-20T04:00:38.747Z,43.02
2018-11-20T04:03:25.329Z,39.80
2018-11-20T04:06:22.365Z,49.15
2018-11-20T04:09:10.432Z,44.73
2018-11-20T04:11:54.918Z,43.10
2018-11-20T04:14:41.569Z,47.70
2018-11-20T04:17:24.445Z,43.05
2018-11-20T04:20:11.433Z,40.58
2018-11-20T04:23:01.785Z,41.60
2018-11-20T04:25:49.830Z,39.03
2018-11-20T04:28:52.843Z,39.50
2018-11-20T04:32:15.607Z,41.53
2018-11-20T04:35:23.975Z,40.52
2018-11-20T04:38:10.862Z,35.33
2018-11-20T04:41:06.421Z,46.10
2018-11-20T04:43:51.237Z,41.08
2018-11-20T04:46:50.913Z,41.25
2018-11-20T04:49:35.674Z,45.00
2018-11-20T04:52:22.103Z,44.50
2018-11-20T04:55:04.638Z,40.60
2018-11-20T04:57:57.623Z,44.55
2018-11-20T05:00:44.112Z,35.60
2018-11-20T05:03:30.480Z,43.05
2018-11-20T05:06:16.924Z,42.13
2018-11-20T05:09:19.845Z,48.55
2018-11-20T05:12:06.584Z,42.98
2018-11-20T05:14:53.337Z,42.70
2018-11-20T05:17:40.393Z,40.12
2018-11-20T05:20:34.279Z,43.02
2018-11-20T05:23:20.923Z,45.48
2018-11-20T05:26:08.929Z,39.88
2018-11-20T05:28:52.812Z,44.85
2018-11-20T05:31:39.423Z,44.55
2018-11-20T05:34:19.031Z,48.42
2018-11-20T05:36:57.874Z,49.67
2018-11-20T05:39:44.150Z,45.83
2018-11-20T05:42:32.190Z,53.60
2018-11-20T05:45:19.136Z,50.45
2018-11-20T05:48:13.153Z,50.80
2018-11-20T05:50:59.505Z,43.25
2018-11-20T05:56:36.496Z,53.45
2018-11-20T05:59:36.143Z,44.48
2018-11-20T06:02:23.553Z,56.00
2018-11-20T06:05:10.671Z,49.95
2018-11-20T06:10:45.017Z,38.58
2018-11-20T06:17:08.093Z,51.68
2018-11-20T06:19:55.267Z,42.33
2018-11-20T06:22:42.596Z,56.80
2018-11-20T06:28:01.812Z,48.75
2018-11-20T06:30:55.019Z,53.70
2018-11-20T06:33:40.960Z,56.60
2018-11-20T06:36:31.004Z,53.98
2018-11-20T06:39:18.298Z,54.65
2018-11-20T06:42:04.279Z,46.13
2018-11-20T06:44:44.822Z,52.25
2018-11-20T06:47:26.898Z,45.88
2018-11-20T06:50:12.656Z,49.03
2018-11-20T06:53:02.600Z,52.80
2018-11-20T06:55:57.171Z,63.08
2018-11-20T06:58:42.228Z,58.52
2018-11-20T07:01:18.727Z,56.65
2018-11-20T07:03:57.781Z,55.40
2018-11-20T07:06:54.284Z,57.88
2018-11-20T07:09:44.307Z,62.05
2018-11-20T07:12:37.577Z,52.03
2018-11-20T07:15:23.851Z,51.80
2018-11-20T07:17:58.547Z,52.65
2018-11-20T07:20:39.730Z,51.48
2018-11-20T07:23:28.869Z,47.25
2018-11-20T07:26:21.300Z,51.08
2018-11-20T07:28:58.019Z,51.25
2018-11-20T07:31:57.284Z,51.48
2018-11-20T07:34:43.203Z,55.40
2018-11-20T07:37:25.891Z,60.52
2018-11-20T07:40:18.726Z,49.73
2018-11-20T07:43:04.693Z,49.60
2018-11-20T07:45:54.645Z,47.35
2018-11-20T07:49:00.302Z,47.53
2018-11-20T07:52:02.713Z,51.13
2018-11-20T07:54:48.611Z,57.35
2018-11-20T07:57:44.847Z,49.58
2018-11-20T08:00:24.260Z,44.18
2018-11-20T08:03:10.138Z,47.20
2018-11-20T08:05:57.337Z,51.18
2018-11-20T08:08:36.019Z,44.30
2018-11-20T08:11:29.410Z,49.30
2018-11-20T08:14:12.209Z,43.58
2018-11-20T08:16:54.349Z,47.10
2018-11-20T08:19:50.523Z,45.88
2018-11-20T08:22:43.651Z,49.80
2018-11-20T08:25:39.956Z,47.53
2018-11-20T08:28:22.725Z,54.80
2018-11-20T08:31:15.720Z,46.53
2018-11-20T08:34:01.212Z,45.78
2018-11-20T08:36:57.209Z,45.65
2018-11-20T08:39:38.917Z,50.95
2018-11-20T08:42:24.887Z,40.88
2018-11-20T08:45:11.900Z,53.25
2018-11-20T08:48:05.315Z,46.30
2018-11-20T08:50:43.950Z,47.40
2018-11-20T08:53:35.865Z,52.08
2018-11-20T08:56:26.827Z,53.83
2018-11-20T08:59:20.039Z,50.60
2018-11-20T09:02:07.465Z,48.95
2018-11-20T09:04:53.059Z,61.83
2018-11-20T09:07:38.919Z,52.45
2018-11-20T09:10:25.081Z,46.70
2018-11-20T09:13:15.371Z,49.33
2018-11-20T09:16:17.743Z,60.35
2018-11-20T09:19:15.278Z,60.50
2018-11-20T09:22:01.104Z,50.45
2018-11-20T09:24:54.726Z,55.45
2018-11-20T09:27:36.700Z,57.48
2018-11-20T09:30:22.850Z,57.17
2018-11-20T09:33:09.882Z,49.95
2018-11-20T09:36:12.105Z,51.85
2018-11-20T09:38:51.731Z,49.38
2018-11-20T09:41:43.229Z,53.50
2018-11-20T09:44:45.172Z,54.23
2018-11-20T09:47:30.623Z,58.58
2018-11-20T09:50:36.334Z,44.98
2018-11-20T09:53:30.357Z,56.50
2018-11-20T09:56:21.165Z,53.02
2018-11-20T09:59:27.238Z,45.65
2018-11-20T10:02:26.332Z,57.73
2018-11-20T10:05:13.555Z,55.70
2018-11-20T10:07:51.665Z,66.47
2018-11-20T10:10:38.865Z,54.55
2018-11-20T10:13:13.928Z,53.42
2018-11-20T10:15:59.662Z,57.80
2018-11-20T10:18:41.663Z,51.02
2018-11-20T10:21:27.393Z,50.98
2018-11-20T10:24:17.719Z,53.05
2018-11-20T10:27:01.747Z,50.60
2018-11-20T10:29:48.331Z,57.67
2018-11-20T10:32:31.352Z,57.00
2018-11-20T10:35:18.776Z,61.88
2018-11-20T10:37:59.543Z,49.73
2018-11-20T10:40:59.034Z,55.78
2018-11-20T10:43:53.163Z,55.00
2018-11-20T10:46:40.915Z,50.67
2018-11-20T10:49:24.045Z,60.08
2018-11-20T10:52:02.546Z,57.70
2018-11-20T10:54:44.299Z,51.28
2018-11-20T10:57:27.745Z,57.45
2018-11-20T11:00:14.973Z,63.13
2018-11-20T11:03:00.707Z,63.50
2018-11-20T11:05:48.141Z,58.95
2018-11-20T11:08:33.884Z,73.45
2018-11-20T11:11:39.537Z,63.55
2018-11-20T11:14:37.519Z,55.00
2018-11-20T11:17:24.760Z,61.90
2018-11-20T11:20:10.749Z,52.33
2018-11-20T11:22:54.549Z,61.28
2018-11-20T11:25:40.463Z,59.95
2018-11-20T11:28:26.491Z,63.17
2018-11-20T11:31:19.749Z,64.22
2018-11-20T11:34:02.856Z,58.40
2018-11-20T11:36:43.394Z,55.52
2018-11-20T11:39:39.490Z,63.28
2018-11-20T11:42:25.513Z,64.15
2018-11-20T11:45:05.490Z,61.23
2018-11-20T11:47:47.900Z,60.00
2018-11-20T11:50:30.030Z,58.60
2018-11-20T11:53:16.380Z,63.15
2018-11-20T11:56:06.221Z,56.15
2018-11-20T11:58:43.083Z,65.87
2018-11-20T12:04:17.176Z,62.88
2018-11-20T12:07:03.144Z,63.50
2018-11-20T12:09:53.369Z,64.00
2018-11-20T12:12:48.877Z,51.40
2018-11-20T12:15:31.915Z,55.10
2018-11-20T12:18:17.527Z,60.30
2018-11-20T12:21:10.679Z,50.88
2018-11-20T12:23:48.341Z,44.27
2018-11-20T12:29:04.787Z,44.48
2018-11-20T12:31:51.978Z,51.08
2018-11-20T12:34:39.229Z,48.42
2018-11-20T12:37:26.416Z,44.25
2018-11-20T12:40:14.588Z,45.15
2018-11-20T12:43:00.941Z,45.65
2018-11-20T12:46:12.948Z,39.08
2018-11-20T12:48:49.855Z,32.17
2018-11-20T12:51:37.173Z,38.67
2018-11-20T12:54:24.538Z,29.92
2018-11-20T12:57:11.821Z,31.07
2018-11-20T12:59:58.987Z,27.20
2018-11-20T13:02:46.284Z,32.75
2018-11-20T13:05:22.892Z,31.27
2018-11-20T13:08:10.197Z,31.85
2018-11-20T13:10:57.438Z,29.45
2018-11-20T13:13:44.767Z,31.27
2018-11-20T13:16:31.952Z,27.87
2018-11-20T13:19:19.482Z,29.63
2018-11-20T13:22:06.904Z,31.30
2018-11-20T13:24:57.921Z,29.57
2018-11-20T13:27:41.470Z,26.20
2018-11-20T13:30:28.913Z,26.62
2018-11-20T13:36:05.651Z,30.62
2018-11-20T13:38:52.848Z,32.50
2018-11-20T13:41:59.861Z,27.77
2018-11-20T13:44:40.127Z,27.02
2018-11-20T13:47:27.433Z,26.48
2018-11-20T13:50:14.630Z,26.52
2018-11-20T13:53:01.960Z,28.27
2018-11-20T13:55:49.139Z,26.95
2018-11-20T13:58:36.450Z,27.10
2018-11-20T14:01:24.729Z,27.85
2018-11-20T14:04:12.098Z,31.45
2018-11-20T14:06:59.235Z,23.73
2018-11-20T14:09:46.521Z,26.33
2018-11-20T14:12:33.686Z,23.15
2018-11-20T14:15:21.263Z,22.50
2018-11-20T14:18:08.266Z,14.68
2018-11-20T14:20:58.281Z,26.30
2018-11-20T14:24:03.929Z,24.77
2018-11-20T14:26:56.645Z,24.77
2018-11-20T14:29:43.884Z,24.72
2018-11-20T14:32:29.649Z,22.45
2018-11-20T14:35:15.631Z,22.87
2018-11-20T14:38:21.211Z,22.50
2018-11-20T14:41:01.013Z,23.45
2018-11-20T14:43:35.664Z,21.00
2018-11-20T14:46:13.229Z,24.90
2018-11-20T14:49:09.640Z,27.13
2018-11-20T14:52:12.095Z,24.50
2018-11-20T14:54:54.286Z,22.50
2018-11-20T14:57:39.911Z,22.50
2018-11-20T15:00:35.708Z,25.37
2018-11-20T15:03:41.012Z,24.07
2018-11-20T15:06:34.309Z,23.90
2018-11-20T15:09:20.406Z,22.60
2018-11-20T15:11:57.275Z,20.17
2018-11-20T15:14:38.215Z,25.25
2018-11-20T15:17:23.832Z,25.97
2018-11-20T15:20:13.772Z,24.72
2018-11-20T15:23:13.113Z,27.60
2018-11-20T15:26:04.015Z,24.05
2018-11-20T15:28:47.456Z,23.80
2018-11-20T15:31:28.160Z,31.12
2018-11-20T15:34:21.713Z,23.75
2018-11-20T15:37:26.758Z,24.07
2018-11-20T15:40:06.507Z,26.33
2018-11-20T15:42:58.229Z,25.90
2018-11-20T15:45:44.663Z,28.32
2018-11-20T15:48:30.431Z,27.98
2018-11-20T15:51:07.078Z,29.10
2018-11-20T15:54:03.014Z,31.70
2018-11-20T15:56:51.139Z,29.02
2018-11-20T15:59:48.169Z,32.30
2018-11-20T16:02:35.462Z,34.00
2018-11-20T16:05:21.378Z,33.98
2018-11-20T16:08:08.957Z,40.60
2018-11-20T16:10:46.445Z,36.42
2018-11-20T16:13:21.672Z,36.10
2018-11-20T16:16:11.714Z,41.02
2018-11-20T16:19:13.849Z,37.40
2018-11-20T16:22:05.898Z,43.50
2018-11-20T16:25:04.221Z,39.80
2018-11-20T16:27:57.162Z,43.85
2018-11-20T16:30:50.346Z,35.25
2018-11-20T16:33:34.771Z,36.17
2018-11-20T16:36:20.489Z,38.83
2018-11-20T16:39:05.971Z,36.98
2018-11-20T16:42:02.272Z,43.10
2018-11-20T16:45:04.566Z,39.00
2018-11-20T16:48:01.101Z,42.33
2018-11-20T16:50:48.766Z,47.08
2018-11-20T16:53:36.107Z,47.40
2018-11-20T16:56:27.601Z,49.98
2018-11-20T16:59:33.160Z,47.55
2018-11-20T17:02:23.107Z,42.25
2018-11-20T17:05:09.148Z,58.55
2018-11-20T17:08:14.277Z,50.92
2018-11-20T17:10:57.042Z,48.48
2018-11-20T17:13:43.216Z,75.47
2018-11-20T17:16:24.063Z,60.38
2018-11-20T17:19:09.783Z,63.63
2018-11-20T17:21:55.782Z,70.42
2018-11-20T17:24:41.671Z,74.67
2018-11-20T17:27:41.006Z,91.10
2018-11-20T17:30:45.180Z,72.95
2018-11-20T17:33:35.033Z,66.57
2018-11-20T17:36:20.854Z,66.57
2018-11-20T17:38:59.806Z,76.53
2018-11-20T17:41:53.258Z,84.80
2018-11-20T17:44:43.955Z,65.92
2018-11-20T17:47:31.343Z,73.47
2018-11-20T17:50:18.663Z,105.80
2018-11-20T17:53:08.623Z,131.57
2018-11-20T17:55:54.462Z,97.82
2018-11-20T17:58:40.186Z,195.87
2018-11-20T18:01:34.000Z,131.80
2018-11-20T18:04:16.949Z,99.50
2018-11-20T18:07:04.507Z,141.50
2018-11-20T18:09:50.673Z,120.02
2018-11-20T18:12:36.734Z,125.58
2018-11-20T18:15:35.913Z,230.45
2018-11-20T18:18:25.093Z,146.47
2018-11-20T18:21:18.032Z,100.20
2018-11-20T18:24:04.454Z,110.45
2018-11-20T18:27:00.367Z,154.87
2018-11-20T18:29:46.571Z,103.10
2018-11-20T18:32:32.293Z,136.70
2018-11-20T18:35:18.629Z,329.23
2018-11-20T18:37:57.750Z,211.75
2018-11-20T18:40:45.003Z,266.95
2018-11-20T18:43:30.804Z,119.67
2018-11-20T18:46:17.254Z,134.87
2018-11-20T18:49:02.683Z,115.35
2018-11-20T18:51:42.655Z,121.77
2018-11-20T18:54:24.475Z,125.72
2018-11-20T18:57:05.007Z,131.18
2018-11-20T18:59:52.200Z,131.07
2018-11-20T19:02:38.637Z,114.15
2018-11-20T19:05:33.408Z,104.45
2018-11-20T19:08:19.340Z,195.15
2018-11-20T19:11:05.544Z,107.63
2018-11-20T19:13:54.325Z,176.63
2018-11-20T19:16:54.555Z,140.52
2018-11-20T19:19:53.863Z,106.03
2018-11-20T19:22:44.274Z,97.42
2018-11-20T19:25:30.148Z,89.85
2018-11-20T19:28:15.183Z,104.85
2018-11-20T19:30:58.912Z,113.28
2018-11-20T19:33:40.247Z,97.70
2018-11-20T19:36:22.649Z,107.50
2018-11-20T19:39:08.307Z,90.22
2018-11-20T19:42:10.594Z,87.50
2018-11-20T19:44:48.709Z,100.67
2018-11-20T19:47:41.764Z,82.08
2018-11-20T19:50:28.147Z,95.60
2018-11-20T19:53:27.223Z,91.97
2018-11-20T19:56:20.234Z,95.42
2018-11-20T19:59:19.731Z,93.33
2018-11-20T20:02:11.888Z,83.78
2018-11-20T20:05:12.501Z,93.12
2018-11-20T20:08:07.111Z,85.17
2018-11-20T20:11:03.180Z,88.67
2018-11-20T20:13:44.082Z,87.62
2018-11-20T20:16:29.836Z,83.33
2018-11-20T20:19:13.372Z,81.85
2018-11-20T20:22:06.762Z,86.08
2018-11-20T20:24:52.879Z,87.75
2018-11-20T20:27:55.036Z,95.47
2018-11-20T20:30:51.907Z,89.60
2018-11-20T20:33:26.052Z,83.55
2018-11-20T20:36:15.783Z,86.02
2018-11-20T20:39:11.880Z,84.35
2018-11-20T20:41:56.736Z,76.12
2018-11-20T20:44:53.140Z,66.25
2018-11-20T20:47:48.424Z,84.35
2018-11-20T20:50:47.894Z,76.92
2018-11-20T20:53:33.889Z,82.47
2018-11-20T20:56:19.926Z,88.80
2018-11-20T20:58:55.638Z,88.78
2018-11-20T21:01:37.876Z,87.75
2018-11-20T21:04:24.259Z,89.92
2018-11-20T21:07:16.041Z,78.12
2018-11-20T21:10:01.926Z,77.17
2018-11-20T21:12:38.212Z,75.32
2018-11-20T21:15:37.169Z,71.53
2018-11-20T21:18:23.463Z,84.97
2018-11-20T21:21:10.132Z,78.42
2018-11-20T21:24:09.028Z,78.15
2018-11-20T21:27:04.915Z,73.70
2018-11-20T21:29:51.178Z,71.62
2018-11-20T21:32:47.201Z,68.50
2018-11-20T21:35:33.325Z,71.45
2018-11-20T21:38:21.870Z,72.45
2018-11-20T21:41:08.161Z,67.72
2018-11-20T21:43:49.033Z,61.48
2018-11-20T21:46:42.360Z,69.17
2018-11-20T21:49:28.096Z,62.98
2018-11-20T21:52:15.160Z,69.22
2018-11-20T21:55:05.070Z,66.85
2018-11-20T21:57:53.274Z,62.10
2018-11-20T22:00:56.095Z,60.38
2018-11-20T22:03:42.319Z,67.72
2018-11-20T22:06:28.243Z,60.05
2018-11-20T22:09:16.360Z,56.33
2018-11-20T22:12:09.165Z,51.83
2018-11-20T22:15:14.598Z,59.83
2018-11-20T22:18:15.278Z,53.70
2018-11-20T22:20:53.137Z,56.85
2018-11-20T22:23:38.976Z,54.40
2018-11-20T22:26:15.203Z,50.43
2018-11-20T22:29:17.397Z,52.05
2018-11-20T22:32:03.244Z,50.78
2018-11-20T22:34:53.440Z,49.03
2018-11-20T22:37:40.939Z,46.00
2018-11-20T22:40:31.292Z,47.53
2018-11-20T22:43:17.443Z,45.17
2018-11-20T22:46:03.249Z,46.58
2018-11-20T22:48:50.834Z,49.42
2018-11-20T22:51:36.915Z,46.45
2018-11-20T22:54:39.731Z,47.08
2018-11-20T22:57:26.298Z,44.42
2018-11-20T23:00:12.160Z,44.77
2018-11-20T23:03:11.693Z,53.63
2018-11-20T23:06:09.868Z,43.95
2018-11-20T23:08:38.128Z,47.20
2018-11-20T23:11:06.623Z,49.08
2018-11-20T23:13:34.867Z,52.67
2018-11-20T23:16:03.028Z,48.13
2018-11-20T23:18:31.217Z,50.98
2018-11-20T23:20:59.310Z,51.42
2018-11-20T23:23:30.682Z,50.25
2018-11-20T23:25:58.867Z,46.63
2018-11-20T23:28:26.912Z,48.70
2018-11-20T23:30:55.182Z,45.10
2018-11-20T23:33:23.372Z,49.75
2018-11-20T23:35:51.428Z,50.60
2018-11-20T23:38:19.476Z,46.40
2018-11-20T23:40:47.632Z,49.73
2018-11-20T23:43:15.666Z,46.60
2018-11-20T23:45:43.734Z,51.65
2018-11-20T23:48:11.850Z,46.83
2018-11-20T23:50:39.964Z,53.40
2018-11-20T23:53:08.006Z,44.67
2018-11-20T23:55:36.153Z,50.50
2018-11-20T23:58:04.179Z,51.53
